sensor_id;sensor_type;location;lat;lon;timestamp;P1;durP1;ratioP1;P2;durP2;ratioP2
61391;SDS011;47261;52.892;5.738;2022-11-25T00:01:05;14.40;;;1.15;;
61391;SDS011;47261;52.892;5.738;2022-11-25T00:03:41;11.68;;;2.03;;
61391;SDS011;47261;52.892;5.738;2022-11-25T00:08:32;18.90;;;1.85;;
61391;SDS011;47261;52.892;5.738;2022-11-25T00:11:01;9.77;;;1.37;;
61391;SDS011;47261;52.892;5.738;2022-11-25T00:13:27;9.02;;;1.23;;
61391;SDS011;47261;52.892;5.738;2022-11-25T00:15:53;11.52;;;1.75;;
61391;SDS011;47261;52.892;5.738;2022-11-25T00:18:19;7.30;;;1.20;;
61391;SDS011;47261;52.892;5.738;2022-11-25T00:20:45;10.23;;;1.58;;
61391;SDS011;47261;52.892;5.738;2022-11-25T00:23:11;9.53;;;1.27;;
61391;SDS011;47261;52.892;5.738;2022-11-25T00:25:36;9.50;;;1.25;;
61391;SDS011;47261;52.892;5.738;2022-11-25T00:28:02;14.17;;;1.97;;
61391;SDS011;47261;52.892;5.738;2022-11-25T00:30:27;13.85;;;1.63;;
61391;SDS011;47261;52.892;5.738;2022-11-25T00:32:53;8.17;;;1.40;;
61391;SDS011;47261;52.892;5.738;2022-11-25T00:35:19;9.33;;;1.30;;
61391;SDS011;47261;52.892;5.738;2022-11-25T00:37:45;6.35;;;1.13;;
61391;SDS011;47261;52.892;5.738;2022-11-25T00:40:11;18.57;;;2.20;;
61391;SDS011;47261;52.892;5.738;2022-11-25T00:42:37;12.80;;;1.33;;
61391;SDS011;47261;52.892;5.738;2022-11-25T00:45:21;6.53;;;0.98;;
61391;SDS011;47261;52.892;5.738;2022-11-25T00:47:46;11.10;;;1.50;;
61391;SDS011;47261;52.892;5.738;2022-11-25T00:50:12;15.40;;;1.47;;
61391;SDS011;47261;52.892;5.738;2022-11-25T00:52:38;12.53;;;2.13;;
61391;SDS011;47261;52.892;5.738;2022-11-25T00:55:03;13.75;;;1.42;;
61391;SDS011;47261;52.892;5.738;2022-11-25T00:57:29;14.32;;;2.15;;
61391;SDS011;47261;52.892;5.738;2022-11-25T00:59:55;10.30;;;1.10;;
61391;SDS011;47261;52.892;5.738;2022-11-25T01:02:21;15.93;;;1.38;;
61391;SDS011;47261;52.892;5.738;2022-11-25T01:04:47;10.43;;;1.85;;
61391;SDS011;47261;52.892;5.738;2022-11-25T01:07:13;15.20;;;1.67;;
61391;SDS011;47261;52.892;5.738;2022-11-25T01:09:39;10.15;;;1.15;;
61391;SDS011;47261;52.892;5.738;2022-11-25T01:12:05;11.33;;;1.60;;
61391;SDS011;47261;52.892;5.738;2022-11-25T01:14:31;10.38;;;1.45;;
61391;SDS011;47261;52.892;5.738;2022-11-25T01:16:57;18.42;;;1.70;;
61391;SDS011;47261;52.892;5.738;2022-11-25T01:19:22;9.70;;;1.20;;
61391;SDS011;47261;52.892;5.738;2022-11-25T01:21:48;10.85;;;1.38;;
61391;SDS011;47261;52.892;5.738;2022-11-25T01:24:14;15.03;;;1.77;;
61391;SDS011;47261;52.892;5.738;2022-11-25T01:26:40;12.60;;;1.33;;
61391;SDS011;47261;52.892;5.738;2022-11-25T01:29:11;16.88;;;1.70;;
61391;SDS011;47261;52.892;5.738;2022-11-25T01:31:39;13.57;;;1.77;;
61391;SDS011;47261;52.892;5.738;2022-11-25T01:34:06;17.80;;;1.70;;
61391;SDS011;47261;52.892;5.738;2022-11-25T01:36:35;19.42;;;1.90;;
61391;SDS011;47261;52.892;5.738;2022-11-25T01:39:01;8.43;;;1.20;;
61391;SDS011;47261;52.892;5.738;2022-11-25T01:41:28;13.33;;;1.57;;
61391;SDS011;47261;52.892;5.738;2022-11-25T01:46:39;15.73;;;1.48;;
61391;SDS011;47261;52.892;5.738;2022-11-25T01:49:34;17.50;;;1.67;;
61391;SDS011;47261;52.892;5.738;2022-11-25T01:52:17;14.30;;;1.40;;
61391;SDS011;47261;52.892;5.738;2022-11-25T01:58:06;10.82;;;1.50;;
61391;SDS011;47261;52.892;5.738;2022-11-25T02:00:39;12.73;;;1.58;;
61391;SDS011;47261;52.892;5.738;2022-11-25T02:03:06;15.55;;;2.10;;
61391;SDS011;47261;52.892;5.738;2022-11-25T02:05:45;18.77;;;1.70;;
61391;SDS011;47261;52.892;5.738;2022-11-25T02:08:16;17.65;;;1.65;;
61391;SDS011;47261;52.892;5.738;2022-11-25T02:10:44;7.63;;;1.30;;
61391;SDS011;47261;52.892;5.738;2022-11-25T02:13:10;13.95;;;1.52;;
61391;SDS011;47261;52.892;5.738;2022-11-25T02:15:36;13.03;;;1.40;;
61391;SDS011;47261;52.892;5.738;2022-11-25T02:18:01;7.25;;;1.10;;
61391;SDS011;47261;52.892;5.738;2022-11-25T02:20:27;17.17;;;2.77;;
61391;SDS011;47261;52.892;5.738;2022-11-25T02:25:37;9.80;;;1.15;;
61391;SDS011;47261;52.892;5.738;2022-11-25T02:28:08;11.10;;;1.45;;
61391;SDS011;47261;52.892;5.738;2022-11-25T02:30:40;12.93;;;1.37;;
61391;SDS011;47261;52.892;5.738;2022-11-25T02:33:07;16.40;;;1.67;;
61391;SDS011;47261;52.892;5.738;2022-11-25T02:35:33;15.73;;;1.42;;
61391;SDS011;47261;52.892;5.738;2022-11-25T02:38:19;13.83;;;1.50;;
61391;SDS011;47261;52.892;5.738;2022-11-25T02:40:50;14.30;;;1.45;;
61391;SDS011;47261;52.892;5.738;2022-11-25T02:43:20;14.63;;;1.20;;
61391;SDS011;47261;52.892;5.738;2022-11-25T02:45:48;8.70;;;1.17;;
61391;SDS011;47261;52.892;5.738;2022-11-25T02:48:19;20.75;;;1.95;;
61391;SDS011;47261;52.892;5.738;2022-11-25T02:50:45;12.60;;;2.10;;
61391;SDS011;47261;52.892;5.738;2022-11-25T02:53:10;4.45;;;0.73;;
61391;SDS011;47261;52.892;5.738;2022-11-25T02:55:36;13.37;;;2.03;;
61391;SDS011;47261;52.892;5.738;2022-11-25T02:58:02;7.80;;;1.20;;
61391;SDS011;47261;52.892;5.738;2022-11-25T03:00:27;3.77;;;0.40;;
61391;SDS011;47261;52.892;5.738;2022-11-25T03:02:53;6.10;;;1.20;;
61391;SDS011;47261;52.892;5.738;2022-11-25T03:05:19;12.68;;;1.73;;
61391;SDS011;47261;52.892;5.738;2022-11-25T03:07:46;15.18;;;1.50;;
61391;SDS011;47261;52.892;5.738;2022-11-25T03:10:11;14.77;;;1.83;;
61391;SDS011;47261;52.892;5.738;2022-11-25T03:12:37;11.33;;;1.03;;
61391;SDS011;47261;52.892;5.738;2022-11-25T03:15:03;9.43;;;1.57;;
61391;SDS011;47261;52.892;5.738;2022-11-25T03:17:29;12.73;;;1.50;;
61391;SDS011;47261;52.892;5.738;2022-11-25T03:19:54;11.83;;;1.70;;
61391;SDS011;47261;52.892;5.738;2022-11-25T03:22:20;12.97;;;2.07;;
61391;SDS011;47261;52.892;5.738;2022-11-25T03:24:45;5.23;;;1.40;;
61391;SDS011;47261;52.892;5.738;2022-11-25T03:27:11;7.95;;;1.65;;
61391;SDS011;47261;52.892;5.738;2022-11-25T03:29:37;10.47;;;1.93;;
61391;SDS011;47261;52.892;5.738;2022-11-25T03:32:02;17.13;;;2.45;;
61391;SDS011;47261;52.892;5.738;2022-11-25T03:34:28;13.13;;;1.50;;
61391;SDS011;47261;52.892;5.738;2022-11-25T03:36:54;13.60;;;2.33;;
61391;SDS011;47261;52.892;5.738;2022-11-25T03:39:19;8.07;;;0.93;;
61391;SDS011;47261;52.892;5.738;2022-11-25T03:41:45;8.17;;;1.20;;
61391;SDS011;47261;52.892;5.738;2022-11-25T03:44:10;11.75;;;2.10;;
61391;SDS011;47261;52.892;5.738;2022-11-25T03:46:36;21.47;;;2.70;;
61391;SDS011;47261;52.892;5.738;2022-11-25T03:49:02;14.10;;;2.28;;
61391;SDS011;47261;52.892;5.738;2022-11-25T03:51:27;7.50;;;1.50;;
61391;SDS011;47261;52.892;5.738;2022-11-25T03:53:53;14.07;;;1.98;;
61391;SDS011;47261;52.892;5.738;2022-11-25T03:56:19;8.53;;;1.63;;
61391;SDS011;47261;52.892;5.738;2022-11-25T03:58:44;14.80;;;1.90;;
61391;SDS011;47261;52.892;5.738;2022-11-25T04:01:10;14.67;;;2.20;;
61391;SDS011;47261;52.892;5.738;2022-11-25T04:03:36;16.53;;;2.83;;
61391;SDS011;47261;52.892;5.738;2022-11-25T04:06:01;17.97;;;2.37;;
61391;SDS011;47261;52.892;5.738;2022-11-25T04:08:27;14.00;;;2.50;;
61391;SDS011;47261;52.892;5.738;2022-11-25T04:10:52;11.57;;;2.22;;
61391;SDS011;47261;52.892;5.738;2022-11-25T04:13:18;9.40;;;2.10;;
61391;SDS011;47261;52.892;5.738;2022-11-25T04:15:44;8.13;;;1.67;;
61391;SDS011;47261;52.892;5.738;2022-11-25T04:18:11;19.80;;;2.70;;
61391;SDS011;47261;52.892;5.738;2022-11-25T04:20:38;14.37;;;2.07;;
61391;SDS011;47261;52.892;5.738;2022-11-25T04:23:04;13.23;;;3.00;;
61391;SDS011;47261;52.892;5.738;2022-11-25T04:25:30;11.40;;;2.28;;
61391;SDS011;47261;52.892;5.738;2022-11-25T04:27:56;13.90;;;2.55;;
61391;SDS011;47261;52.892;5.738;2022-11-25T04:30:22;17.53;;;2.70;;
61391;SDS011;47261;52.892;5.738;2022-11-25T04:32:47;19.87;;;2.50;;
61391;SDS011;47261;52.892;5.738;2022-11-25T04:35:13;13.83;;;2.10;;
61391;SDS011;47261;52.892;5.738;2022-11-25T04:37:39;18.40;;;2.27;;
61391;SDS011;47261;52.892;5.738;2022-11-25T04:40:05;13.15;;;2.78;;
61391;SDS011;47261;52.892;5.738;2022-11-25T04:42:31;9.07;;;1.83;;
61391;SDS011;47261;52.892;5.738;2022-11-25T04:44:57;13.67;;;2.93;;
61391;SDS011;47261;52.892;5.738;2022-11-25T04:47:23;17.52;;;3.38;;
61391;SDS011;47261;52.892;5.738;2022-11-25T04:49:49;18.43;;;3.10;;
61391;SDS011;47261;52.892;5.738;2022-11-25T04:52:14;20.38;;;3.55;;
61391;SDS011;47261;52.892;5.738;2022-11-25T04:54:40;17.07;;;2.47;;
61391;SDS011;47261;52.892;5.738;2022-11-25T04:57:05;16.03;;;3.30;;
61391;SDS011;47261;52.892;5.738;2022-11-25T04:59:32;13.07;;;2.73;;
61391;SDS011;47261;52.892;5.738;2022-11-25T05:04:43;15.02;;;2.65;;
61391;SDS011;47261;52.892;5.738;2022-11-25T05:07:09;14.00;;;1.90;;
61391;SDS011;47261;52.892;5.738;2022-11-25T05:09:35;9.87;;;1.57;;
61391;SDS011;47261;52.892;5.738;2022-11-25T05:12:01;8.30;;;1.80;;
61391;SDS011;47261;52.892;5.738;2022-11-25T05:14:27;13.70;;;2.40;;
61391;SDS011;47261;52.892;5.738;2022-11-25T05:16:53;9.77;;;2.00;;
61391;SDS011;47261;52.892;5.738;2022-11-25T05:19:18;7.00;;;1.33;;
61391;SDS011;47261;52.892;5.738;2022-11-25T05:21:44;10.57;;;1.90;;
61391;SDS011;47261;52.892;5.738;2022-11-25T05:24:09;17.90;;;2.80;;
61391;SDS011;47261;52.892;5.738;2022-11-25T05:26:35;3.63;;;1.03;;
61391;SDS011;47261;52.892;5.738;2022-11-25T05:29:00;18.53;;;2.00;;
61391;SDS011;47261;52.892;5.738;2022-11-25T05:31:26;8.27;;;1.60;;
61391;SDS011;47261;52.892;5.738;2022-11-25T05:33:52;14.73;;;2.25;;
61391;SDS011;47261;52.892;5.738;2022-11-25T05:36:17;7.70;;;1.40;;
61391;SDS011;47261;52.892;5.738;2022-11-25T05:38:43;8.33;;;1.77;;
61391;SDS011;47261;52.892;5.738;2022-11-25T05:41:09;14.70;;;2.20;;
61391;SDS011;47261;52.892;5.738;2022-11-25T05:43:36;6.22;;;1.15;;
61391;SDS011;47261;52.892;5.738;2022-11-25T05:46:05;11.38;;;1.85;;
61391;SDS011;47261;52.892;5.738;2022-11-25T05:48:31;15.80;;;2.53;;
61391;SDS011;47261;52.892;5.738;2022-11-25T05:51:00;9.80;;;1.83;;
61391;SDS011;47261;52.892;5.738;2022-11-25T05:53:27;12.52;;;1.98;;
61391;SDS011;47261;52.892;5.738;2022-11-25T05:55:57;10.95;;;1.67;;
61391;SDS011;47261;52.892;5.738;2022-11-25T05:58:26;12.90;;;2.10;;
61391;SDS011;47261;52.892;5.738;2022-11-25T06:00:53;11.53;;;2.13;;
61391;SDS011;47261;52.892;5.738;2022-11-25T06:03:19;14.60;;;2.25;;
61391;SDS011;47261;52.892;5.738;2022-11-25T06:05:47;17.33;;;2.80;;
61391;SDS011;47261;52.892;5.738;2022-11-25T06:08:13;13.20;;;2.10;;
61391;SDS011;47261;52.892;5.738;2022-11-25T06:10:39;11.00;;;1.93;;
61391;SDS011;47261;52.892;5.738;2022-11-25T06:13:05;12.43;;;2.70;;
61391;SDS011;47261;52.892;5.738;2022-11-25T06:15:31;16.38;;;3.13;;
61391;SDS011;47261;52.892;5.738;2022-11-25T06:17:57;9.20;;;2.20;;
61391;SDS011;47261;52.892;5.738;2022-11-25T06:20:23;12.02;;;3.63;;
61391;SDS011;47261;52.892;5.738;2022-11-25T06:22:48;13.67;;;2.70;;
61391;SDS011;47261;52.892;5.738;2022-11-25T06:25:14;10.90;;;3.55;;
61391;SDS011;47261;52.892;5.738;2022-11-25T06:27:40;7.13;;;1.60;;
61391;SDS011;47261;52.892;5.738;2022-11-25T06:30:06;8.00;;;1.40;;
61391;SDS011;47261;52.892;5.738;2022-11-25T06:32:32;9.15;;;2.05;;
61391;SDS011;47261;52.892;5.738;2022-11-25T06:34:57;8.03;;;1.83;;
61391;SDS011;47261;52.892;5.738;2022-11-25T06:37:23;11.60;;;2.00;;
61391;SDS011;47261;52.892;5.738;2022-11-25T06:39:48;13.80;;;2.53;;
61391;SDS011;47261;52.892;5.738;2022-11-25T06:42:14;3.00;;;0.83;;
61391;SDS011;47261;52.892;5.738;2022-11-25T06:44:40;9.93;;;2.20;;
61391;SDS011;47261;52.892;5.738;2022-11-25T06:47:05;10.10;;;2.13;;
61391;SDS011;47261;52.892;5.738;2022-11-25T06:49:31;11.30;;;2.20;;
61391;SDS011;47261;52.892;5.738;2022-11-25T06:51:56;15.47;;;2.93;;
61391;SDS011;47261;52.892;5.738;2022-11-25T06:54:22;12.73;;;2.30;;
61391;SDS011;47261;52.892;5.738;2022-11-25T06:56:48;12.13;;;2.45;;
61391;SDS011;47261;52.892;5.738;2022-11-25T06:59:17;10.90;;;2.13;;
61391;SDS011;47261;52.892;5.738;2022-11-25T07:01:44;14.77;;;2.80;;
61391;SDS011;47261;52.892;5.738;2022-11-25T07:04:10;7.90;;;2.27;;
61391;SDS011;47261;52.892;5.738;2022-11-25T07:06:36;10.95;;;2.28;;
61391;SDS011;47261;52.892;5.738;2022-11-25T07:09:02;4.73;;;1.27;;
61391;SDS011;47261;52.892;5.738;2022-11-25T07:11:29;12.82;;;2.45;;
61391;SDS011;47261;52.892;5.738;2022-11-25T07:13:57;11.18;;;2.38;;
61391;SDS011;47261;52.892;5.738;2022-11-25T07:16:28;13.15;;;2.55;;
61391;SDS011;47261;52.892;5.738;2022-11-25T07:18:54;10.17;;;2.50;;
61391;SDS011;47261;52.892;5.738;2022-11-25T07:21:21;12.90;;;2.53;;
61391;SDS011;47261;52.892;5.738;2022-11-25T07:23:49;15.90;;;3.00;;
61391;SDS011;47261;52.892;5.738;2022-11-25T07:28:42;8.07;;;2.00;;
61391;SDS011;47261;52.892;5.738;2022-11-25T07:33:37;10.40;;;2.15;;
61391;SDS011;47261;52.892;5.738;2022-11-25T07:36:03;10.47;;;2.30;;
61391;SDS011;47261;52.892;5.738;2022-11-25T07:38:31;10.40;;;2.13;;
61391;SDS011;47261;52.892;5.738;2022-11-25T07:41:07;12.70;;;2.65;;
61391;SDS011;47261;52.892;5.738;2022-11-25T07:43:34;11.13;;;2.50;;
61391;SDS011;47261;52.892;5.738;2022-11-25T07:49:03;12.77;;;2.70;;
61391;SDS011;47261;52.892;5.738;2022-11-25T07:51:32;8.02;;;2.30;;
61391;SDS011;47261;52.892;5.738;2022-11-25T07:54:03;13.20;;;2.53;;
61391;SDS011;47261;52.892;5.738;2022-11-25T07:56:30;12.85;;;2.55;;
61391;SDS011;47261;52.892;5.738;2022-11-25T07:58:57;8.93;;;2.63;;
61391;SDS011;47261;52.892;5.738;2022-11-25T08:01:23;15.60;;;2.50;;
61391;SDS011;47261;52.892;5.738;2022-11-25T08:03:49;15.27;;;2.97;;
61391;SDS011;47261;52.892;5.738;2022-11-25T08:06:17;9.77;;;2.83;;
61391;SDS011;47261;52.892;5.738;2022-11-25T08:08:44;15.77;;;2.50;;
61391;SDS011;47261;52.892;5.738;2022-11-25T08:11:14;13.85;;;2.95;;
61391;SDS011;47261;52.892;5.738;2022-11-25T08:13:42;7.93;;;2.83;;
61391;SDS011;47261;52.892;5.738;2022-11-25T08:16:08;10.25;;;2.75;;
61391;SDS011;47261;52.892;5.738;2022-11-25T08:18:36;13.57;;;2.80;;
61391;SDS011;47261;52.892;5.738;2022-11-25T08:21:03;13.32;;;2.70;;
61391;SDS011;47261;52.892;5.738;2022-11-25T08:23:30;8.45;;;2.28;;
61391;SDS011;47261;52.892;5.738;2022-11-25T08:26:01;13.68;;;2.55;;
61391;SDS011;47261;52.892;5.738;2022-11-25T08:28:28;7.80;;;1.92;;
61391;SDS011;47261;52.892;5.738;2022-11-25T08:31:00;10.70;;;3.00;;
61391;SDS011;47261;52.892;5.738;2022-11-25T08:33:30;8.10;;;1.77;;
61391;SDS011;47261;52.892;5.738;2022-11-25T08:35:56;9.23;;;2.07;;
61391;SDS011;47261;52.892;5.738;2022-11-25T08:38:21;11.27;;;2.22;;
61391;SDS011;47261;52.892;5.738;2022-11-25T08:40:47;6.88;;;2.13;;
61391;SDS011;47261;52.892;5.738;2022-11-25T08:43:13;5.83;;;1.37;;
61391;SDS011;47261;52.892;5.738;2022-11-25T08:45:39;9.10;;;1.73;;
61391;SDS011;47261;52.892;5.738;2022-11-25T08:48:06;6.03;;;1.08;;
61391;SDS011;47261;52.892;5.738;2022-11-25T08:50:32;6.93;;;1.50;;
61391;SDS011;47261;52.892;5.738;2022-11-25T08:52:57;6.82;;;1.27;;
61391;SDS011;47261;52.892;5.738;2022-11-25T08:55:24;13.18;;;1.45;;
61391;SDS011;47261;52.892;5.738;2022-11-25T08:57:52;12.13;;;2.13;;
61391;SDS011;47261;52.892;5.738;2022-11-25T09:00:18;5.45;;;1.48;;
61391;SDS011;47261;52.892;5.738;2022-11-25T09:02:44;6.72;;;1.70;;
61391;SDS011;47261;52.892;5.738;2022-11-25T09:05:11;7.83;;;1.83;;
61391;SDS011;47261;52.892;5.738;2022-11-25T09:07:40;5.65;;;1.60;;
61391;SDS011;47261;52.892;5.738;2022-11-25T09:10:07;8.82;;;2.28;;
61391;SDS011;47261;52.892;5.738;2022-11-25T09:12:34;3.97;;;1.00;;
61391;SDS011;47261;52.892;5.738;2022-11-25T09:15:00;5.53;;;1.15;;
61391;SDS011;47261;52.892;5.738;2022-11-25T09:17:26;7.90;;;1.00;;
61391;SDS011;47261;52.892;5.738;2022-11-25T09:19:51;5.13;;;1.10;;
61391;SDS011;47261;52.892;5.738;2022-11-25T09:22:18;6.00;;;1.43;;
61391;SDS011;47261;52.892;5.738;2022-11-25T09:24:44;6.40;;;1.30;;
61391;SDS011;47261;52.892;5.738;2022-11-25T09:27:10;5.40;;;1.20;;
61391;SDS011;47261;52.892;5.738;2022-11-25T09:29:36;12.20;;;1.30;;
61391;SDS011;47261;52.892;5.738;2022-11-25T09:32:01;5.32;;;1.23;;
61391;SDS011;47261;52.892;5.738;2022-11-25T09:34:27;6.73;;;1.40;;
61391;SDS011;47261;52.892;5.738;2022-11-25T09:36:53;7.10;;;0.95;;
61391;SDS011;47261;52.892;5.738;2022-11-25T09:39:18;6.37;;;1.40;;
61391;SDS011;47261;52.892;5.738;2022-11-25T09:41:53;9.18;;;1.15;;
61391;SDS011;47261;52.892;5.738;2022-11-25T09:45:09;4.68;;;0.85;;
61391;SDS011;47261;52.892;5.738;2022-11-25T09:56:01;5.32;;;0.95;;
61391;SDS011;47261;52.892;5.738;2022-11-25T09:58:31;6.55;;;0.95;;
61391;SDS011;47261;52.892;5.738;2022-11-25T10:00:59;4.37;;;0.70;;
61391;SDS011;47261;52.892;5.738;2022-11-25T10:06:06;5.13;;;1.10;;
61391;SDS011;47261;52.892;5.738;2022-11-25T10:08:39;8.13;;;1.20;;
61391;SDS011;47261;52.892;5.738;2022-11-25T10:18:57;7.85;;;1.20;;
61391;SDS011;47261;52.892;5.738;2022-11-25T10:21:25;6.03;;;0.93;;
61391;SDS011;47261;52.892;5.738;2022-11-25T10:23:52;10.02;;;1.45;;
61391;SDS011;47261;52.892;5.738;2022-11-25T10:26:20;5.67;;;1.03;;
61391;SDS011;47261;52.892;5.738;2022-11-25T10:28:56;8.18;;;1.35;;
61391;SDS011;47261;52.892;5.738;2022-11-25T10:31:36;8.13;;;0.93;;
61391;SDS011;47261;52.892;5.738;2022-11-25T10:34:49;10.20;;;1.80;;
61391;SDS011;47261;52.892;5.738;2022-11-25T10:36:54;8.75;;;1.77;;
61391;SDS011;47261;52.892;5.738;2022-11-25T10:39:24;5.53;;;0.90;;
61391;SDS011;47261;52.892;5.738;2022-11-25T10:42:00;9.93;;;1.65;;
61391;SDS011;47261;52.892;5.738;2022-11-25T10:53:16;6.75;;;1.17;;
61391;SDS011;47261;52.892;5.738;2022-11-25T10:55:56;5.47;;;0.55;;
61391;SDS011;47261;52.892;5.738;2022-11-25T11:01:14;6.37;;;1.00;;
61391;SDS011;47261;52.892;5.738;2022-11-25T11:03:42;6.90;;;0.93;;
61391;SDS011;47261;52.892;5.738;2022-11-25T11:06:31;7.63;;;1.40;;
61391;SDS011;47261;52.892;5.738;2022-11-25T11:08:56;7.35;;;1.15;;
61391;SDS011;47261;52.892;5.738;2022-11-25T11:11:23;5.70;;;1.15;;
61391;SDS011;47261;52.892;5.738;2022-11-25T11:13:49;13.33;;;1.40;;
61391;SDS011;47261;52.892;5.738;2022-11-25T11:18:57;7.55;;;1.17;;
61391;SDS011;47261;52.892;5.738;2022-11-25T11:21:27;8.57;;;1.00;;
61391;SDS011;47261;52.892;5.738;2022-11-25T11:23:53;9.37;;;1.57;;
61391;SDS011;47261;52.892;5.738;2022-11-25T11:26:23;8.18;;;1.02;;
61391;SDS011;47261;52.892;5.738;2022-11-25T11:28:56;11.32;;;1.88;;
61391;SDS011;47261;52.892;5.738;2022-11-25T11:31:36;11.27;;;1.00;;
61391;SDS011;47261;52.892;5.738;2022-11-25T11:34:23;11.00;;;1.20;;
61391;SDS011;47261;52.892;5.738;2022-11-25T11:42:56;7.65;;;0.90;;
61391;SDS011;47261;52.892;5.738;2022-11-25T11:48:25;9.32;;;1.20;;
61391;SDS011;47261;52.892;5.738;2022-11-25T11:51:22;6.97;;;1.23;;
61391;SDS011;47261;52.892;5.738;2022-11-25T11:54:15;7.90;;;0.80;;
61391;SDS011;47261;52.892;5.738;2022-11-25T11:56:55;5.40;;;0.93;;
61391;SDS011;47261;52.892;5.738;2022-11-25T12:18:03;16.07;;;1.83;;
61391;SDS011;47261;52.892;5.738;2022-11-25T12:26:13;4.95;;;0.68;;
61391;SDS011;47261;52.892;5.738;2022-11-25T12:28:46;6.15;;;0.65;;
61391;SDS011;47261;52.892;5.738;2022-11-25T12:31:36;7.57;;;1.20;;
61391;SDS011;47261;52.892;5.738;2022-11-25T12:34:11;14.65;;;1.25;;
61391;SDS011;47261;52.892;5.738;2022-11-25T12:36:42;7.55;;;0.73;;
61391;SDS011;47261;52.892;5.738;2022-11-25T12:39:14;13.20;;;1.27;;
61391;SDS011;47261;52.892;5.738;2022-11-25T12:41:58;7.40;;;1.23;;
61391;SDS011;47261;52.892;5.738;2022-11-25T12:44:45;12.73;;;0.90;;
61391;SDS011;47261;52.892;5.738;2022-11-25T12:47:32;6.45;;;0.98;;
61391;SDS011;47261;52.892;5.738;2022-11-25T12:49:58;11.40;;;1.00;;
61391;SDS011;47261;52.892;5.738;2022-11-25T12:54:57;16.03;;;1.73;;
61391;SDS011;47261;52.892;5.738;2022-11-25T12:57:38;11.05;;;1.20;;
61391;SDS011;47261;52.892;5.738;2022-11-25T13:00:16;6.10;;;0.80;;
61391;SDS011;47261;52.892;5.738;2022-11-25T13:14:06;5.13;;;0.68;;
61391;SDS011;47261;52.892;5.738;2022-11-25T13:16:48;7.60;;;0.63;;
61391;SDS011;47261;52.892;5.738;2022-11-25T13:19:17;17.80;;;1.75;;
61391;SDS011;47261;52.892;5.738;2022-11-25T13:24:47;12.35;;;1.13;;
61391;SDS011;47261;52.892;5.738;2022-11-25T13:28:25;10.50;;;1.10;;
61391;SDS011;47261;52.892;5.738;2022-11-25T13:32:57;13.32;;;1.80;;
61391;SDS011;47261;52.892;5.738;2022-11-25T13:41:23;17.50;;;1.70;;
61391;SDS011;47261;52.892;5.738;2022-11-25T13:44:04;14.55;;;1.40;;
61391;SDS011;47261;52.892;5.738;2022-11-25T13:49:04;9.02;;;1.10;;
61391;SDS011;47261;52.892;5.738;2022-11-25T13:51:51;11.75;;;0.98;;
61391;SDS011;47261;52.892;5.738;2022-11-25T13:54:31;7.50;;;1.03;;
61391;SDS011;47261;52.892;5.738;2022-11-25T13:59:37;15.52;;;1.30;;
61391;SDS011;47261;52.892;5.738;2022-11-25T14:26:29;19.42;;;1.15;;
61391;SDS011;47261;52.892;5.738;2022-11-25T14:28:58;16.60;;;1.20;;
61391;SDS011;47261;52.892;5.738;2022-11-25T14:31:36;9.63;;;0.85;;
61391;SDS011;47261;52.892;5.738;2022-11-25T14:34:15;5.60;;;0.50;;
61391;SDS011;47261;52.892;5.738;2022-11-25T14:37:09;4.40;;;0.55;;
61391;SDS011;47261;52.892;5.738;2022-11-25T14:39:46;12.13;;;1.20;;
61391;SDS011;47261;52.892;5.738;2022-11-25T14:42:18;6.65;;;1.17;;
61391;SDS011;47261;52.892;5.738;2022-11-25T14:44:51;17.10;;;1.40;;
61391;SDS011;47261;52.892;5.738;2022-11-25T14:47:24;13.07;;;1.83;;
61391;SDS011;47261;52.892;5.738;2022-11-25T14:49:52;11.80;;;1.40;;
61391;SDS011;47261;52.892;5.738;2022-11-25T14:52:21;16.50;;;1.00;;
61391;SDS011;47261;52.892;5.738;2022-11-25T14:54:51;12.07;;;1.25;;
61391;SDS011;47261;52.892;5.738;2022-11-25T14:57:21;13.50;;;1.50;;
61391;SDS011;47261;52.892;5.738;2022-11-25T14:59:49;13.17;;;1.33;;
61391;SDS011;47261;52.892;5.738;2022-11-25T15:02:23;12.52;;;1.17;;
61391;SDS011;47261;52.892;5.738;2022-11-25T15:04:51;20.05;;;1.45;;
61391;SDS011;47261;52.892;5.738;2022-11-25T15:07:18;11.83;;;1.20;;
61391;SDS011;47261;52.892;5.738;2022-11-25T15:09:46;17.33;;;2.43;;
61391;SDS011;47261;52.892;5.738;2022-11-25T15:12:14;24.42;;;3.90;;
61391;SDS011;47261;52.892;5.738;2022-11-25T15:14:46;15.73;;;2.50;;
61391;SDS011;47261;52.892;5.738;2022-11-25T15:17:29;12.93;;;2.47;;
61391;SDS011;47261;52.892;5.738;2022-11-25T15:19:57;11.95;;;1.05;;
61391;SDS011;47261;52.892;5.738;2022-11-25T15:22:25;11.73;;;1.30;;
61391;SDS011;47261;52.892;5.738;2022-11-25T15:24:52;9.95;;;1.10;;
61391;SDS011;47261;52.892;5.738;2022-11-25T15:27:22;9.52;;;2.10;;
61391;SDS011;47261;52.892;5.738;2022-11-25T15:29:52;13.98;;;1.88;;
61391;SDS011;47261;52.892;5.738;2022-11-25T15:34:57;18.73;;;1.57;;
61391;SDS011;47261;52.892;5.738;2022-11-25T15:37:25;11.70;;;2.20;;
61391;SDS011;47261;52.892;5.738;2022-11-25T15:42:59;14.27;;;1.80;;
61391;SDS011;47261;52.892;5.738;2022-11-25T15:45:29;19.10;;;1.95;;
61391;SDS011;47261;52.892;5.738;2022-11-25T15:48:01;12.47;;;1.63;;
61391;SDS011;47261;52.892;5.738;2022-11-25T15:50:27;8.77;;;1.27;;
61391;SDS011;47261;52.892;5.738;2022-11-25T15:52:55;10.88;;;1.08;;
61391;SDS011;47261;52.892;5.738;2022-11-25T15:55:30;12.10;;;1.35;;
61391;SDS011;47261;52.892;5.738;2022-11-25T16:00:27;14.50;;;1.20;;
61391;SDS011;47261;52.892;5.738;2022-11-25T16:02:55;13.10;;;1.70;;
61391;SDS011;47261;52.892;5.738;2022-11-25T16:08:00;9.30;;;1.38;;
61391;SDS011;47261;52.892;5.738;2022-11-25T16:15:59;4.67;;;0.70;;
61391;SDS011;47261;52.892;5.738;2022-11-25T16:23:56;6.00;;;1.35;;
61391;SDS011;47261;52.892;5.738;2022-11-25T16:29:01;8.07;;;1.70;;
61391;SDS011;47261;52.892;5.738;2022-11-25T16:31:39;15.65;;;3.28;;
61391;SDS011;47261;52.892;5.738;2022-11-25T16:34:15;18.48;;;2.88;;
61391;SDS011;47261;52.892;5.738;2022-11-25T16:36:43;17.25;;;3.17;;
61391;SDS011;47261;52.892;5.738;2022-11-25T16:39:09;12.15;;;2.50;;
61391;SDS011;47261;52.892;5.738;2022-11-25T16:41:35;23.80;;;3.43;;
61391;SDS011;47261;52.892;5.738;2022-11-25T16:44:03;18.38;;;3.50;;
61391;SDS011;47261;52.892;5.738;2022-11-25T16:46:29;22.52;;;3.42;;
61391;SDS011;47261;52.892;5.738;2022-11-25T16:48:55;17.03;;;3.47;;
61391;SDS011;47261;52.892;5.738;2022-11-25T16:51:22;18.00;;;2.65;;
61391;SDS011;47261;52.892;5.738;2022-11-25T16:53:48;14.63;;;2.23;;
61391;SDS011;47261;52.892;5.738;2022-11-25T16:56:20;15.93;;;1.65;;
61391;SDS011;47261;52.892;5.738;2022-11-25T16:58:50;14.95;;;1.73;;
61391;SDS011;47261;52.892;5.738;2022-11-25T17:01:24;19.95;;;2.08;;
61391;SDS011;47261;52.892;5.738;2022-11-25T17:03:51;16.38;;;1.40;;
61391;SDS011;47261;52.892;5.738;2022-11-25T17:06:18;18.60;;;2.20;;
61391;SDS011;47261;52.892;5.738;2022-11-25T17:08:45;16.63;;;3.75;;
61391;SDS011;47261;52.892;5.738;2022-11-25T17:11:12;19.45;;;3.30;;
61391;SDS011;47261;52.892;5.738;2022-11-25T17:13:45;18.77;;;5.77;;
61391;SDS011;47261;52.892;5.738;2022-11-25T17:16:16;14.20;;;4.32;;
61391;SDS011;47261;52.892;5.738;2022-11-25T17:18:44;11.10;;;1.60;;
61391;SDS011;47261;52.892;5.738;2022-11-25T17:21:14;15.07;;;2.10;;
61391;SDS011;47261;52.892;5.738;2022-11-25T17:23:41;14.13;;;2.60;;
61391;SDS011;47261;52.892;5.738;2022-11-25T17:26:24;27.43;;;5.20;;
61391;SDS011;47261;52.892;5.738;2022-11-25T17:29:01;11.80;;;1.90;;
61391;SDS011;47261;52.892;5.738;2022-11-25T17:31:31;17.48;;;2.10;;
61391;SDS011;47261;52.892;5.738;2022-11-25T17:33:57;9.48;;;0.85;;
61391;SDS011;47261;52.892;5.738;2022-11-25T17:36:23;12.97;;;1.40;;